Time;durP1;ratioP1;P1;durP2;ratioP2;P2;SDS_P1;SDS_P2;PMS_P1;PMS_P2;Temp;Humidity;BMP_temperature;BMP_pressure;BME280_temperature;BME280_humidity;BME280_pressure;Samples;Min_cycle;Max_cycle;Signal;HPM_P1;HPM_P2
2022/08/05 00:01:15;;;;;;;11.10;4.13;;;20.10;36.90;;;;;;5063110;28;46462;-67
2022/08/05 00:03:41;;;;;;;8.77;4.00;;;20.20;35.60;;;;;;5061862;28;46327;-67
2022/08/05 00:06:07;;;;;;;6.80;3.53;;;20.20;36.60;;;;;;5063355;28;45982;-67
2022/08/05 00:08:34;;;;;;;9.40;3.90;;;20.20;36.50;;;;;;5059579;28;46453;-67
2022/08/05 00:11:01;;;;;;;11.00;3.60;;;20.10;36.30;;;;;;5062411;28;46323;-67
2022/08/05 00:13:32;;;;;;;8.30;3.70;;;20.10;35.50;;;;;;5062410;28;46419;-67
2022/08/05 00:15:57;;;;;;;9.47;3.90;;;20.10;36.60;;;;;;5061373;28;46608;-67
2022/08/05 00:18:23;;;;;;;6.97;3.80;;;20.10;36.40;;;;;;5061713;28;46319;-67
2022/08/05 00:20:50;;;;;;;8.20;3.50;;;20.00;36.80;;;;;;5062781;28;45825;-67
2022/08/05 00:23:16;;;;;;;8.60;3.90;;;19.80;36.40;;;;;;5062430;28;46352;-67
2022/08/05 00:25:41;;;;;;;7.70;3.53;;;19.80;37.40;;;;;;5064504;28;46354;-67
2022/08/05 00:28:07;;;;;;;8.83;4.40;;;19.80;37.60;;;;;;5062079;28;46457;-67
2022/08/05 00:30:33;;;;;;;18.33;4.50;;;19.70;37.70;;;;;;5069855;28;46385;-67
2022/08/05 00:32:58;;;;;;;13.83;4.00;;;19.60;37.70;;;;;;5061109;28;46443;-67
2022/08/05 00:35:24;;;;;;;12.73;4.30;;;19.60;36.70;;;;;;5062355;28;45912;-66
2022/08/05 00:37:49;;;;;;;7.40;4.40;;;19.60;37.90;;;;;;5059998;28;46397;-66
2022/08/05 00:40:15;;;;;;;6.37;3.77;;;19.60;38.10;;;;;;5060884;28;46493;-66
2022/08/05 00:42:41;;;;;;;10.73;4.10;;;19.60;38.10;;;;;;5062340;28;45834;-66
2022/08/05 00:45:08;;;;;;;16.17;4.50;;;19.60;37.40;;;;;;5060576;28;46368;-67
2022/08/05 00:47:34;;;;;;;8.50;3.93;;;19.50;38.30;;;;;;5060409;28;47424;-67
2022/08/05 00:49:59;;;;;;;8.20;3.70;;;19.50;38.30;;;;;;5062223;28;46399;-67
2022/08/05 00:52:25;;;;;;;6.10;4.13;;;19.40;38.50;;;;;;5061740;28;45895;-67
2022/08/05 00:54:50;;;;;;;7.07;3.80;;;19.50;37.80;;;;;;5059892;28;46307;-67
2022/08/05 00:57:16;;;;;;;11.40;4.53;;;19.50;38.50;;;;;;5060961;28;46379;-67
2022/08/05 00:59:42;;;;;;;11.17;4.30;;;19.50;38.60;;;;;;5058972;28;46435;-67
2022/08/05 01:02:07;;;;;;;18.77;4.03;;;19.40;38.50;;;;;;5061589;28;45857;-67
2022/08/05 01:04:33;;;;;;;6.97;3.90;;;19.50;37.90;;;;;;5060900;28;45966;-66
2022/08/05 01:06:59;;;;;;;6.30;4.17;;;19.40;38.60;;;;;;5059862;28;47045;-68
2022/08/05 01:09:24;;;;;;;12.13;3.90;;;19.40;38.70;;;;;;5061930;28;46431;-67
2022/08/05 01:11:52;;;;;;;12.10;4.13;;;19.40;38.80;;;;;;5058818;28;46406;-68
2022/08/05 01:14:31;;;;;;;7.60;3.80;;;19.40;37.90;;;;;;5061784;28;46722;-67
2022/08/05 01:17:04;;;;;;;9.63;3.90;;;19.50;38.80;;;;;;5060010;28;47318;-67
2022/08/05 01:19:47;;;;;;;8.60;4.27;;;19.50;38.40;;;;;;5061267;28;46455;-67
2022/08/05 01:22:44;;;;;;;5.93;3.50;;;19.50;38.50;;;;;;5056946;28;46397;-67
2022/08/05 01:25:47;;;;;;;11.87;4.43;;;19.50;37.70;;;;;;5059480;28;46409;-67
2022/08/05 01:28:31;;;;;;;10.83;4.20;;;19.50;38.60;;;;;;5058135;28;46219;-67
2022/08/05 01:31:14;;;;;;;7.70;3.83;;;19.40;38.40;;;;;;5061191;28;46417;-67
2022/08/05 01:33:48;;;;;;;8.87;4.00;;;19.20;37.80;;;;;;5060209;28;46476;-68
2022/08/05 01:36:17;;;;;;;7.30;3.87;;;19.20;39.10;;;;;;5059118;28;46359;-67
2022/08/05 01:38:46;;;;;;;11.27;4.43;;;19.00;39.40;;;;;;5060703;28;46481;-67
2022/08/05 01:41:15;;;;;;;10.30;3.53;;;18.90;39.80;;;;;;5061185;28;45810;-67
2022/08/05 01:43:42;;;;;;;9.70;3.93;;;18.90;39.20;;;;;;5060428;27;46378;-67
2022/08/05 01:46:08;;;;;;;6.13;3.80;;;18.90;40.10;;;;;;5061891;28;46296;-67
2022/08/05 01:48:35;;;;;;;9.23;4.20;;;18.90;40.20;;;;;;5058364;28;46615;-67
2022/08/05 01:51:03;;;;;;;9.23;4.20;;;19.00;40.00;;;;;;5061264;28;46452;-67
2022/08/05 01:53:30;;;;;;;5.50;3.77;;;19.10;38.90;;;;;;5060303;28;46405;-68
2022/08/05 01:55:59;;;;;;;5.93;3.77;;;19.10;40.00;;;;;;5061560;28;46381;-68
2022/08/05 01:58:27;;;;;;;8.87;4.20;;;19.10;40.00;;;;;;5059842;28;46560;-68
2022/08/05 02:00:56;;;;;;;9.80;3.70;;;19.10;40.00;;;;;;5058076;28;46439;-68
2022/08/05 02:03:24;;;;;;;8.30;4.27;;;19.10;39.10;;;;;;5060563;28;46464;-69
2022/08/05 02:05:52;;;;;;;4.87;3.60;;;19.10;39.90;;;;;;5059377;28;46610;-67
2022/08/05 02:08:18;;;;;;;11.70;3.53;;;19.00;40.00;;;;;;5055109;28;47112;-67
2022/08/05 02:10:49;;;;;;;6.70;3.93;;;18.90;40.20;;;;;;5056328;28;46420;-67
2022/08/05 02:13:18;;;;;;;14.00;4.17;;;18.90;39.60;;;;;;5059177;28;46420;-67
2022/08/05 02:15:49;;;;;;;5.03;3.53;;;18.90;40.60;;;;;;5059989;28;46537;-67
2022/08/05 02:18:23;;;;;;;10.80;4.67;;;18.90;40.80;;;;;;5058929;28;46408;-67
2022/08/05 02:20:53;;;;;;;6.90;3.80;;;18.90;41.00;;;;;;5060032;28;46736;-67
2022/08/05 02:23:23;;;;;;;5.60;3.73;;;18.80;40.00;;;;;;5060140;28;46427;-67
2022/08/05 02:25:51;;;;;;;11.23;4.17;;;18.80;41.00;;;;;;5058594;28;46555;-67
2022/08/05 02:28:30;;;;;;;6.37;4.10;;;18.80;41.10;;;;;;5058727;28;46664;-67
2022/08/05 02:31:10;;;;;;;7.70;4.20;;;18.90;41.50;;;;;;5048297;28;46230;-67
2022/08/05 02:33:40;;;;;;;9.03;4.20;;;18.90;41.30;;;;;;5056709;28;46567;-68
2022/08/05 02:36:12;;;;;;;8.77;4.63;;;18.90;41.20;;;;;;5055919;28;46607;-67
2022/08/05 02:38:38;;;;;;;9.10;4.77;;;18.90;41.20;;;;;;5056750;28;46447;-67
2022/08/05 02:41:06;;;;;;;7.63;4.03;;;18.90;41.40;;;;;;5057778;28;46375;-67
2022/08/05 02:43:33;;;;;;;6.50;3.57;;;18.80;40.60;;;;;;5057271;28;46480;-67
2022/08/05 02:45:59;;;;;;;7.23;4.07;;;18.80;41.60;;;;;;5059048;28;45888;-67
2022/08/05 02:48:25;;;;;;;7.20;4.37;;;18.80;41.70;;;;;;5057229;28;48012;-67
2022/08/05 02:50:52;;;;;;;5.97;3.87;;;18.80;41.90;;;;;;5057791;28;46436;-67
2022/08/05 02:53:20;;;;;;;8.57;4.67;;;18.70;41.30;;;;;;5059346;28;46345;-68
2022/08/05 02:55:48;;;;;;;8.67;4.13;;;18.70;42.20;;;;;;5059952;28;46352;-67
2022/08/05 02:58:16;;;;;;;8.33;4.40;;;19.30;42.70;;;;;;5057844;28;46555;-67
2022/08/05 03:00:43;;;;;;;6.20;4.27;;;18.70;42.20;;;;;;5061013;28;46394;-68
2022/08/05 03:03:13;;;;;;;7.23;4.43;;;18.70;41.30;;;;;;5059864;28;46509;-67
2022/08/05 03:05:39;;;;;;;9.20;4.57;;;18.70;42.50;;;;;;5058359;28;46319;-68
2022/08/05 03:08:05;;;;;;;7.10;5.03;;;18.70;42.60;;;;;;5058092;28;46097;-67
2022/08/05 03:10:31;;;;;;;8.83;4.93;;;18.60;43.30;;;;;;5059279;28;46345;-67
2022/08/05 03:12:57;;;;;;;6.87;4.73;;;18.60;43.00;;;;;;5059900;28;46405;-68
2022/08/05 03:15:22;;;;;;;6.10;4.67;;;18.60;42.20;;;;;;5059630;28;46354;-68
2022/08/05 03:17:48;;;;;;;8.13;4.67;;;18.60;43.20;;;;;;5058838;28;46510;-68
2022/08/05 03:20:14;;;;;;;8.43;5.27;;;18.70;43.20;;;;;;5058614;28;46310;-68
2022/08/05 03:22:39;;;;;;;9.37;4.87;;;18.70;43.30;;;;;;5059106;28;46814;-67
2022/08/05 03:25:06;;;;;;;8.67;4.87;;;18.60;42.60;;;;;;5059323;28;46521;-67
2022/08/05 03:27:32;;;;;;;6.40;4.50;;;18.60;43.60;;;;;;5058175;28;46338;-67
2022/08/05 03:29:57;;;;;;;7.33;4.77;;;18.60;43.80;;;;;;5059741;28;46362;-67
2022/08/05 03:32:23;;;;;;;10.53;4.70;;;18.50;43.90;;;;;;5059069;28;46503;-67
2022/08/05 03:34:51;;;;;;;13.50;5.40;;;18.40;43.60;;;;;;5059716;28;46503;-67
2022/08/05 03:37:18;;;;;;;7.07;4.83;;;18.30;44.70;;;;;;5040603;28;47823;-67
2022/08/05 03:39:58;;;;;;;7.33;5.10;;;18.30;45.00;;;;;;5058124;28;46361;-67
2022/08/05 03:42:24;;;;;;;12.33;5.17;;;18.30;45.40;;;;;;5058884;28;46540;-67
2022/08/05 03:44:50;;;;;;;10.23;5.10;;;18.40;44.40;;;;;;5059327;28;46594;-67
2022/08/05 03:47:15;;;;;;;8.30;4.87;;;18.40;45.10;;;;;;5058611;28;46448;-67
2022/08/05 03:49:41;;;;;;;10.77;4.50;;;18.50;45.00;;;;;;5059033;28;45839;-67
2022/08/05 03:52:10;;;;;;;9.30;5.63;;;18.50;44.70;;;;;;5061370;28;46436;-67
2022/08/05 03:54:54;;;;;;;11.70;5.50;;;18.70;43.70;;;;;;5062448;28;46543;-67
2022/08/05 03:57:24;;;;;;;8.80;5.03;;;18.80;44.40;;;;;;5060038;28;46348;-67
2022/08/05 03:59:57;;;;;;;9.63;5.03;;;18.90;44.00;;;;;;5062657;28;46460;-67
2022/08/05 04:02:25;;;;;;;10.20;4.53;;;19.00;43.90;;;;;;5063101;28;45749;-67
2022/08/05 04:04:52;;;;;;;7.10;4.73;;;19.10;42.70;;;;;;5061914;28;46420;-67
2022/08/05 04:07:17;;;;;;;8.40;4.80;;;19.30;43.30;;;;;;5061832;28;46681;-67
2022/08/05 04:09:43;;;;;;;10.93;4.07;;;19.50;43.10;;;;;;5061156;28;46406;-68
2022/08/05 04:12:09;;;;;;;8.10;4.60;;;19.70;42.70;;;;;;5063239;28;46402;-67
2022/08/05 04:14:35;;;;;;;6.30;4.30;;;19.90;41.20;;;;;;5062272;28;46517;-67
2022/08/05 04:17:01;;;;;;;6.30;4.57;;;20.00;42.00;;;;;;5062343;28;47306;-67
2022/08/05 04:19:28;;;;;;;8.37;4.73;;;20.10;41.70;;;;;;5059804;28;46354;-67
2022/08/05 04:21:53;;;;;;;6.10;4.27;;;20.30;41.60;;;;;;5061148;28;46606;-67
2022/08/05 04:24:19;;;;;;;10.60;4.23;;;20.50;40.30;;;;;;5061050;28;45989;-67
2022/08/05 04:26:44;;;;;;;10.30;3.87;;;20.60;41.10;;;;;;5059953;28;47196;-68
2022/08/05 04:29:10;;;;;;;5.30;4.23;;;20.70;40.90;;;;;;5060718;28;46393;-67
2022/08/05 04:31:36;;;;;;;6.43;3.53;;;20.90;40.60;;;;;;5060373;28;46393;-67
2022/08/05 04:34:02;;;;;;;6.60;4.10;;;21.20;38.90;;;;;;5062544;28;46603;-67
2022/08/05 04:36:28;;;;;;;7.57;4.17;;;21.20;39.80;;;;;;5060449;28;46431;-67
2022/08/05 04:38:54;;;;;;;6.33;4.10;;;21.40;39.30;;;;;;5061807;28;46722;-68
2022/08/05 04:41:20;;;;;;;6.33;4.30;;;21.60;39.00;;;;;;5060841;28;46338;-67
2022/08/05 04:43:45;;;;;;;5.83;4.03;;;21.90;37.20;;;;;;5061694;28;46505;-68
2022/08/05 04:46:11;;;;;;;6.27;3.57;;;21.90;38.10;;;;;;5061066;28;47613;-68
2022/08/05 04:48:36;;;;;;;7.33;3.70;;;22.10;37.50;;;;;;5059006;28;46298;-68
2022/08/05 04:51:02;;;;;;;5.90;3.93;;;22.40;36.90;;;;;;5061236;28;46417;-68
2022/08/05 04:53:28;;;;;;;7.40;4.00;;;22.70;35.50;;;;;;5061003;28;46357;-68
2022/08/05 04:55:53;;;;;;;4.83;3.67;;;22.70;36.60;;;;;;5062979;28;46622;-67
2022/08/05 04:58:19;;;;;;;7.30;3.80;;;22.80;36.60;;;;;;5060636;28;46393;-67
2022/08/05 05:00:45;;;;;;;12.80;3.53;;;23.10;35.70;;;;;;5062085;28;46458;-67
2022/08/05 05:03:10;;;;;;;6.60;3.47;;;24.40;32.20;;;;;;5059839;28;46684;-68
2022/08/05 05:05:37;;;;;;;5.03;3.43;;;24.40;33.10;;;;;;5063378;28;47271;-67
2022/08/05 05:08:05;;;;;;;9.13;3.63;;;25.50;30.90;;;;;;5060102;28;46493;-68
2022/08/05 05:10:36;;;;;;;4.83;3.10;;;26.30;29.10;;;;;;5061926;28;45787;-68
2022/08/05 05:13:02;;;;;;;4.60;3.13;;;27.20;27.10;;;;;;5060354;28;45840;-68
2022/08/05 05:15:27;;;;;;;4.50;3.00;;;27.90;25.30;;;;;;5060058;28;46472;-67
2022/08/05 05:17:53;;;;;;;7.00;3.60;;;28.30;25.20;;;;;;5060636;28;46338;-67
2022/08/05 05:20:18;;;;;;;6.40;3.27;;;28.80;24.00;;;;;;5058142;28;46409;-67
2022/08/05 05:22:44;;;;;;;9.13;3.73;;;29.40;22.70;;;;;;5062183;28;46455;-68
2022/08/05 05:25:11;;;;;;;5.60;3.13;;;30.10;19.50;;;;;;5058868;28;47390;-68
2022/08/05 05:27:37;;;;;;;6.80;3.80;;;30.70;19.60;;;;;;5062220;28;46334;-68
2022/08/05 05:30:04;;;;;;;7.23;3.37;;;30.80;18.30;;;;;;5065575;28;46266;-68
2022/08/05 05:32:29;;;;;;;5.27;2.70;;;29.70;19.70;;;;;;5061261;28;45894;-68
2022/08/05 05:34:55;;;;;;;7.90;2.93;;;28.50;20.10;;;;;;5060476;28;46416;-69
2022/08/05 05:37:20;;;;;;;6.43;3.13;;;27.90;21.90;;;;;;5060697;28;46428;-68
2022/08/05 05:39:46;;;;;;;3.77;2.50;;;27.30;22.70;;;;;;5060593;28;46387;-68
2022/08/05 05:42:11;;;;;;;7.30;2.80;;;26.80;23.20;;;;;;5061804;28;46483;-68
2022/08/05 05:44:37;;;;;;;6.70;3.30;;;26.50;22.30;;;;;;5059858;28;47154;-68
2022/08/05 05:47:03;;;;;;;4.20;2.63;;;27.00;22.30;;;;;;5060074;28;46434;-67
2022/08/05 05:49:28;;;;;;;8.60;3.17;;;28.20;20.10;;;;;;5060936;28;45937;-67
2022/08/05 05:51:54;;;;;;;8.07;3.10;;;29.30;18.10;;;;;;5062132;28;46326;-67
2022/08/05 05:54:20;;;;;;;5.97;3.37;;;30.30;15.10;;;;;;5058074;28;46403;-68
2022/08/05 05:56:46;;;;;;;5.40;2.90;;;30.60;15.30;;;;;;5060748;28;46400;-68
2022/08/05 05:59:12;;;;;;;7.33;3.30;;;30.70;13.90;;;;;;5060676;28;46477;-71
2022/08/05 06:01:40;;;;;;;5.10;2.97;;;29.40;15.50;;;;;;5060529;28;46321;-71
2022/08/05 06:04:06;;;;;;;6.73;2.93;;;28.60;15.90;;;;;;5060504;28;47221;-71
2022/08/05 06:06:32;;;;;;;8.13;3.27;;;28.30;17.20;;;;;;5060279;28;46373;-71
2022/08/05 06:08:58;;;;;;;9.80;3.23;;;28.70;16.90;;;;;;5053379;28;46615;-69
2022/08/05 06:11:24;;;;;;;5.07;3.07;;;29.90;15.20;;;;;;5059105;28;46471;-70
2022/08/05 06:13:49;;;;;;;4.93;3.20;;;31.10;11.30;;;;;;5057333;28;47215;-69
2022/08/05 06:16:15;;;;;;;6.10;2.77;;;31.20;11.80;;;;;;5056112;28;47536;-69
2022/08/05 06:18:40;;;;;;;8.27;3.60;;;31.50;11.00;;;;;;5059160;28;46489;-70
2022/08/05 06:21:06;;;;;;;5.60;2.90;;;30.60;11.80;;;;;;5059724;28;46522;-70
2022/08/05 06:23:32;;;;;;;4.27;3.23;;;31.10;9.20;;;;;;5058993;28;46133;-69
2022/08/05 06:25:57;;;;;;;6.53;3.63;;;31.20;9.90;;;;;;5057873;28;46397;-70
2022/08/05 06:28:23;;;;;;;5.97;3.30;;;31.20;9.20;;;;;;5058068;28;46360;-70
2022/08/05 06:30:48;;;;;;;5.13;2.63;;;30.70;10.50;;;;;;5058944;28;46715;-69
2022/08/05 06:33:14;;;;;;;5.53;3.10;;;29.10;12.40;;;;;;5058458;28;47266;-72
2022/08/05 06:35:40;;;;;;;6.37;3.40;;;29.10;13.40;;;;;;5059660;28;46433;-71
2022/08/05 06:38:05;;;;;;;5.83;3.10;;;28.50;14.10;;;;;;5058703;28;46476;-70
2022/08/05 06:40:31;;;;;;;8.37;3.10;;;28.10;14.80;;;;;;5058875;28;46951;-69
2022/08/05 06:42:56;;;;;;;6.30;3.17;;;27.80;15.40;;;;;;5056150;28;46482;-74
2022/08/05 06:45:22;;;;;;;5.90;3.00;;;27.60;15.20;;;;;;5058058;28;46509;-71
2022/08/05 06:47:48;;;;;;;7.60;3.30;;;27.40;16.20;;;;;;5056666;28;46505;-69
2022/08/05 06:50:14;;;;;;;7.20;3.13;;;27.30;16.10;;;;;;5058839;28;46487;-70
2022/08/05 06:52:39;;;;;;;12.00;3.80;;;27.10;17.10;;;;;;5058801;28;46716;-70
2022/08/05 06:55:05;;;;;;;9.57;3.67;;;26.80;17.00;;;;;;5056595;28;46392;-69
2022/08/05 06:57:31;;;;;;;15.27;3.27;;;26.70;17.80;;;;;;5057849;28;46399;-70
2022/08/05 06:59:57;;;;;;;9.57;3.23;;;27.00;18.50;;;;;;5058240;28;45958;-71
2022/08/05 07:02:22;;;;;;;6.23;3.30;;;27.20;16.90;;;;;;5057868;28;45989;-70
2022/08/05 07:04:48;;;;;;;9.83;3.20;;;27.20;16.30;;;;;;5058458;28;46480;-70
2022/08/05 07:07:14;;;;;;;8.27;3.67;;;27.10;17.40;;;;;;5058334;28;46438;-70
2022/08/05 07:09:39;;;;;;;6.90;3.33;;;26.90;17.50;;;;;;5059156;28;46698;-70
2022/08/05 07:12:05;;;;;;;6.10;3.40;;;26.60;17.70;;;;;;5058913;28;47248;-69
2022/08/05 07:17:15;;;;;;;5.90;3.40;;;26.60;18.20;;;;;;5056592;28;46441;-70
2022/08/05 07:19:41;;;;;;;6.03;3.40;;;26.80;17.90;;;;;;5059904;28;46654;-69
2022/08/05 07:22:06;;;;;;;10.00;3.53;;;27.20;17.90;;;;;;5059069;28;46925;-73
2022/08/05 07:24:32;;;;;;;4.20;3.13;;;27.30;17.00;;;;;;5057798;28;46598;-70
2022/08/05 07:26:57;;;;;;;6.80;3.50;;;27.30;17.80;;;;;;5061040;28;46613;-72
2022/08/05 07:29:23;;;;;;;9.57;3.40;;;27.30;17.90;;;;;;5060250;28;45873;-72
2022/08/05 07:31:49;;;;;;;4.57;3.10;;;27.20;17.80;;;;;;5060340;28;46417;-70
2022/08/05 07:34:14;;;;;;;6.00;3.70;;;27.00;17.10;;;;;;5060408;28;46495;-64
2022/08/05 07:36:40;;;;;;;8.90;3.23;;;27.00;18.00;;;;;;5059692;28;46405;-71
2022/08/05 07:39:07;;;;;;;9.83;3.70;;;27.00;17.90;;;;;;5062739;28;45962;-72
2022/08/05 07:41:34;;;;;;;6.27;3.43;;;27.20;17.90;;;;;;5060392;28;46755;-72
2022/08/05 07:44:01;;;;;;;9.73;3.90;;;26.80;17.10;;;;;;5061598;28;46470;-70
2022/08/05 07:46:28;;;;;;;6.83;3.90;;;26.90;18.10;;;;;;5060982;28;46480;-72
2022/08/05 07:48:55;;;;;;;11.67;3.83;;;26.90;18.10;;;;;;5060769;28;46724;-72
2022/08/05 07:51:21;;;;;;;19.33;4.37;;;26.90;18.10;;;;;;5061219;28;46596;-72
2022/08/05 07:53:46;;;;;;;11.53;4.47;;;27.20;17.30;;;;;;5060478;28;46470;-71
2022/08/05 07:56:12;;;;;;;14.07;3.90;;;27.30;18.20;;;;;;5058579;28;46414;-71
2022/08/05 07:58:38;;;;;;;5.67;3.73;;;27.50;17.60;;;;;;5062952;28;46381;-71
2022/08/05 08:01:04;;;;;;;6.70;3.63;;;27.80;17.30;;;;;;5062569;28;46463;-70
2022/08/05 08:03:29;;;;;;;11.50;3.30;;;28.30;15.80;;;;;;5064854;28;46490;-70
2022/08/05 08:05:55;;;;;;;6.20;3.70;;;28.40;16.70;;;;;;5060656;28;46495;-71
2022/08/05 08:08:20;;;;;;;6.90;3.67;;;28.70;16.90;;;;;;5058036;28;46420;-70
2022/08/05 08:10:46;;;;;;;14.20;3.87;;;28.80;16.30;;;;;;5061239;28;46424;-70
2022/08/05 08:13:12;;;;;;;11.40;4.20;;;28.90;14.50;;;;;;5060391;28;46483;-70
2022/08/05 08:15:37;;;;;;;6.77;3.70;;;28.80;15.20;;;;;;5061423;28;46470;-71
2022/08/05 08:18:04;;;;;;;6.40;3.87;;;28.80;15.60;;;;;;5062158;28;45939;-69
2022/08/05 08:20:29;;;;;;;5.40;3.60;;;29.10;15.20;;;;;;5060984;28;45959;-71
2022/08/05 08:23:01;;;;;;;7.17;4.07;;;29.20;14.70;;;;;;5061416;28;46417;-73
2022/08/05 08:25:27;;;;;;;16.70;3.80;;;28.90;14.00;;;;;;5062383;28;46827;-72
2022/08/05 08:27:54;;;;;;;8.90;3.23;;;29.00;14.90;;;;;;5060814;28;45933;-70
2022/08/05 08:30:20;;;;;;;12.80;3.63;;;28.60;15.10;;;;;;5061075;28;46619;-69
2022/08/05 08:32:45;;;;;;;11.57;3.70;;;28.30;16.60;;;;;;5058791;28;46468;-69
2022/08/05 08:35:11;;;;;;;9.50;3.50;;;28.20;15.70;;;;;;5059711;28;46316;-70
2022/08/05 08:37:37;;;;;;;6.53;3.40;;;28.40;16.40;;;;;;5060804;28;46413;-71
2022/08/05 08:40:03;;;;;;;10.50;3.80;;;28.70;16.00;;;;;;5060179;28;46496;-72
2022/08/05 08:42:29;;;;;;;9.53;3.60;;;28.70;15.70;;;;;;5060591;28;46687;-71
2022/08/05 08:44:56;;;;;;;14.77;3.20;;;28.50;15.60;;;;;;5059147;28;46475;-71
2022/08/05 08:47:24;;;;;;;7.60;3.33;;;28.00;16.20;;;;;;5060654;28;46151;-70
2022/08/05 08:49:55;;;;;;;8.17;3.70;;;27.70;16.30;;;;;;5063985;28;47049;-71
2022/08/05 08:52:23;;;;;;;10.63;3.87;;;27.90;16.70;;;;;;5061270;28;46509;-73
2022/08/05 08:54:51;;;;;;;9.40;3.63;;;28.00;15.80;;;;;;5056376;28;46507;-73
2022/08/05 08:57:17;;;;;;;9.13;3.20;;;27.90;16.50;;;;;;5056533;28;46873;-72
2022/08/05 08:59:43;;;;;;;8.90;3.30;;;28.20;16.60;;;;;;5058120;28;47028;-72
2022/08/05 09:02:10;;;;;;;8.03;3.40;;;27.90;16.40;;;;;;5056362;28;46355;-73
2022/08/05 09:04:37;;;;;;;12.13;3.43;;;27.70;16.40;;;;;;5059344;28;46378;-73
2022/08/05 09:07:05;;;;;;;6.97;3.60;;;27.50;16.90;;;;;;5058735;28;46499;-70
2022/08/05 09:09:34;;;;;;;11.30;3.40;;;27.40;16.60;;;;;;5058985;28;46725;-72
2022/08/05 09:12:01;;;;;;;7.27;3.40;;;27.30;16.50;;;;;;5057327;28;46406;-73
2022/08/05 09:14:27;;;;;;;5.20;3.50;;;27.50;15.40;;;;;;5058090;28;46639;-73
2022/08/05 09:16:53;;;;;;;8.20;3.10;;;27.80;16.50;;;;;;5058519;28;46395;-74
2022/08/05 09:19:19;;;;;;;9.27;4.27;;;27.90;16.60;;;;;;5062530;28;46923;-75
2022/08/05 09:21:44;;;;;;;11.70;3.67;;;27.90;15.80;;;;;;5060737;28;46647;-72
2022/08/05 09:24:12;;;;;;;7.50;3.57;;;28.20;14.60;;;;;;5059053;28;46347;-73
2022/08/05 09:26:38;;;;;;;6.57;2.63;;;28.30;15.40;;;;;;5059575;28;46354;-73
2022/08/05 09:29:06;;;;;;;6.77;3.03;;;28.50;14.90;;;;;;5060096;28;46413;-73
2022/08/05 09:31:32;;;;;;;5.50;3.60;;;28.70;14.60;;;;;;5061124;28;46469;-73
2022/08/05 09:34:02;;;;;;;12.03;2.90;;;28.50;12.70;;;;;;5061001;28;46606;-74
2022/08/05 09:36:37;;;;;;;24.37;2.93;;;28.50;13.60;;;;;;5063216;28;46334;-71
2022/08/05 09:39:05;;;;;;;8.50;2.77;;;28.70;13.30;;;;;;5058712;28;46441;-72
2022/08/05 09:41:31;;;;;;;6.37;2.90;;;28.80;13.00;;;;;;5058914;28;46409;-71
2022/08/05 09:43:57;;;;;;;5.97;2.87;;;28.80;11.90;;;;;;5059388;28;46404;-72
2022/08/05 09:46:29;;;;;;;5.43;2.97;;;28.80;12.80;;;;;;5059411;28;46641;-73
2022/08/05 09:49:00;;;;;;;8.73;2.97;;;28.80;12.60;;;;;;5058436;28;47430;-72
2022/08/05 09:51:37;;;;;;;6.97;2.77;;;28.70;12.30;;;;;;5059145;28;46367;-72
2022/08/05 09:54:06;;;;;;;7.03;3.17;;;28.80;11.70;;;;;;5058901;28;46416;-74
2022/08/05 09:56:33;;;;;;;11.10;3.17;;;28.80;12.60;;;;;;5057030;28;45976;-73
2022/08/05 09:59:00;;;;;;;7.10;3.60;;;29.10;12.70;;;;;;5060265;28;46501;-74
2022/08/05 10:01:26;;;;;;;9.97;3.07;;;29.70;12.70;;;;;;5059756;28;46403;-73
2022/08/05 10:03:58;;;;;;;5.50;2.60;;;29.70;12.30;;;;;;5059174;28;45914;-75
2022/08/05 10:06:26;;;;;;;8.83;3.13;;;29.80;11.00;;;;;;5057927;28;46478;-75
2022/08/05 10:08:52;;;;;;;6.17;2.53;;;29.80;10.50;;;;;;5058037;28;46325;-71
2022/08/05 10:11:17;;;;;;;6.53;2.63;;;29.90;10.00;;;;;;5060273;28;46556;-73
2022/08/05 10:13:43;;;;;;;8.93;3.20;;;30.00;10.00;;;;;;5064109;28;46536;-72
2022/08/05 10:16:33;;;;;;;5.80;2.90;;;30.20;10.10;;;;;;5062776;28;46813;-74
2022/08/05 10:19:00;;;;;;;4.43;2.40;;;30.30;10.10;;;;;;5062790;28;46424;-74
2022/08/05 10:21:26;;;;;;;6.53;3.07;;;30.20;10.90;;;;;;5059632;28;46402;-72
2022/08/05 10:23:52;;;;;;;5.17;2.83;;;30.00;10.00;;;;;;5058952;28;46345;-75
2022/08/05 10:26:18;;;;;;;6.03;3.00;;;30.20;9.80;;;;;;5058951;28;46671;-73
2022/08/05 10:28:45;;;;;;;4.97;2.40;;;30.20;10.00;;;;;;5059849;28;46644;-71
2022/08/05 10:31:13;;;;;;;5.07;2.57;;;30.00;9.70;;;;;;5063441;28;46425;-73
2022/08/05 10:33:39;;;;;;;7.23;2.80;;;29.80;9.70;;;;;;5054667;28;46003;-71
2022/08/05 10:36:05;;;;;;;6.80;2.63;;;29.80;9.90;;;;;;5057991;28;46423;-72
2022/08/05 10:38:33;;;;;;;3.43;2.60;;;29.80;9.60;;;;;;5062549;28;48316;-74
2022/08/05 10:41:02;;;;;;;6.40;3.00;;;29.70;8.80;;;;;;5061582;28;46367;-71
2022/08/05 10:43:28;;;;;;;6.40;2.40;;;30.00;8.00;;;;;;5060021;28;46870;-72
2022/08/05 10:45:58;;;;;;;6.30;2.70;;;30.00;9.10;;;;;;5059829;28;46487;-74
2022/08/05 10:48:45;;;;;;;6.73;2.33;;;30.50;8.50;;;;;;5056789;28;47142;-72
2022/08/05 10:51:12;;;;;;;6.57;2.77;;;30.50;7.40;;;;;;5058153;28;46365;-75
2022/08/05 10:53:52;;;;;;;6.43;2.70;;;30.80;6.70;;;;;;5048922;28;46435;-72
2022/08/05 10:56:27;;;;;;;5.13;2.47;;;30.70;6.60;;;;;;5059630;28;46635;-72
2022/08/05 10:58:53;;;;;;;4.73;2.37;;;30.20;6.70;;;;;;5060786;28;46397;-73
2022/08/05 11:01:35;;;;;;;4.23;2.17;;;29.90;6.90;;;;;;5063816;28;46733;-73
2022/08/05 11:04:11;;;;;;;5.30;2.50;;;30.00;5.70;;;;;;5058262;28;46473;-74
2022/08/05 11:07:05;;;;;;;5.23;2.60;;;30.00;7.10;;;;;;5059685;28;46306;-72
2022/08/05 11:09:46;;;;;;;4.33;2.40;;;30.40;7.10;;;;;;5068740;28;45987;-72
2022/08/05 11:12:33;;;;;;;6.27;2.60;;;30.70;6.50;;;;;;5059275;28;46460;-72
2022/08/05 11:15:15;;;;;;;8.33;2.80;;;30.80;5.70;;;;;;5061576;28;46704;-73
2022/08/05 11:17:41;;;;;;;9.63;2.77;;;30.90;6.60;;;;;;5058564;28;46632;-73
2022/08/05 11:20:36;;;;;;;23.77;2.77;;;31.20;6.80;;;;;;5061299;28;47182;-71
2022/08/05 11:23:36;;;;;;;4.33;2.30;;;31.80;5.10;;;;;;5068226;28;46394;-71
2022/08/05 11:26:04;;;;;;;9.40;2.37;;;31.70;6.10;;;;;;5029907;28;46422;-71
2022/08/05 11:28:33;;;;;;;4.93;2.10;;;32.00;5.70;;;;;;5065156;28;46452;-71
2022/08/05 11:31:02;;;;;;;4.63;2.67;;;32.20;5.30;;;;;;5052237;28;47996;-71
2022/08/05 11:33:27;;;;;;;4.67;2.40;;;32.10;4.80;;;;;;5059958;28;46450;-71
2022/08/05 11:36:13;;;;;;;8.20;2.70;;;32.00;5.40;;;;;;5062488;28;46449;-71
2022/08/05 11:38:42;;;;;;;5.90;2.37;;;31.70;5.20;;;;;;5062601;28;46385;-70
2022/08/05 11:41:14;;;;;;;6.37;2.70;;;31.40;5.00;;;;;;5063846;28;47256;-72
2022/08/05 11:44:09;;;;;;;3.80;2.10;;;31.50;4.40;;;;;;5061396;28;46583;-74
2022/08/05 11:46:35;;;;;;;4.50;2.50;;;31.60;5.00;;;;;;5048652;28;46560;-74
2022/08/05 11:49:03;;;;;;;3.53;2.60;;;31.80;4.90;;;;;;5064165;28;46651;-74
2022/08/05 11:51:29;;;;;;;4.50;2.33;;;31.90;4.30;;;;;;5062095;28;47163;-73
2022/08/05 11:53:55;;;;;;;16.77;2.97;;;32.10;4.00;;;;;;5062175;28;46427;-74
2022/08/05 11:56:21;;;;;;;6.00;2.63;;;32.10;4.90;;;;;;5062686;28;46379;-73
2022/08/05 11:58:49;;;;;;;4.47;2.53;;;32.10;4.80;;;;;;5064259;28;46672;-74
2022/08/05 12:01:17;;;;;;;8.90;2.47;;;31.90;4.80;;;;;;5060865;28;46453;-74
2022/08/05 12:03:48;;;;;;;5.70;2.30;;;31.80;3.80;;;;;;5064094;28;46546;-73
2022/08/05 12:06:15;;;;;;;4.57;2.60;;;31.90;4.60;;;;;;5062103;28;46477;-74
2022/08/05 12:08:43;;;;;;;4.50;2.10;;;31.80;4.20;;;;;;5061926;28;46449;-73
2022/08/05 12:11:14;;;;;;;4.07;2.70;;;31.60;4.80;;;;;;5060672;28;47107;-73
2022/08/05 12:13:39;;;;;;;6.30;2.50;;;31.80;3.70;;;;;;5060204;28;46548;-74
2022/08/05 12:16:06;;;;;;;4.53;2.30;;;31.80;4.60;;;;;;5062523;28;46455;-73
2022/08/05 12:18:34;;;;;;;6.80;2.70;;;31.90;4.50;;;;;;5061901;28;46452;-74
2022/08/05 12:21:10;;;;;;;7.17;2.60;;;31.80;4.50;;;;;;5062156;28;46413;-73
2022/08/05 12:23:35;;;;;;;4.90;2.87;;;31.60;3.70;;;;;;5060670;28;45800;-75
2022/08/05 12:26:01;;;;;;;5.97;2.57;;;31.60;4.80;;;;;;5062561;28;46445;-74
2022/08/05 12:28:36;;;;;;;5.07;2.37;;;31.30;4.60;;;;;;5061074;28;46350;-74
2022/08/05 12:31:03;;;;;;;3.57;2.40;;;31.00;5.00;;;;;;5061675;28;46448;-75
2022/08/05 12:33:29;;;;;;;8.77;2.00;;;30.90;5.00;;;;;;5061385;28;46333;-74
2022/08/05 12:35:56;;;;;;;7.03;2.37;;;30.90;5.80;;;;;;5063084;28;46440;-75
2022/08/05 12:38:22;;;;;;;4.30;2.47;;;31.00;5.80;;;;;;5059870;28;46386;-75
2022/08/05 12:40:49;;;;;;;6.33;2.50;;;31.20;6.10;;;;;;5061366;28;46418;-75
2022/08/05 12:43:15;;;;;;;6.80;2.47;;;31.40;5.10;;;;;;5059240;28;46613;-74
2022/08/05 12:45:52;;;;;;;6.63;2.30;;;31.40;6.00;;;;;;5060706;28;46409;-74
2022/08/05 12:48:17;;;;;;;5.47;2.80;;;31.40;5.80;;;;;;5062344;28;45980;-74
2022/08/05 12:50:43;;;;;;;5.57;2.60;;;31.60;5.80;;;;;;5062229;28;46051;-74
2022/08/05 12:53:15;;;;;;;7.23;2.53;;;31.80;4.80;;;;;;5066631;28;45786;-74
2022/08/05 12:55:41;;;;;;;6.93;2.63;;;31.70;5.70;;;;;;5065426;28;45918;-74